sensor_id;sensor_type;location;lat;lon;timestamp;P1;durP1;ratioP1;P2;durP2;ratioP2
83190;SDS011;73087;49.924;22.080;2024-03-08T00:00:18;24.65;;;12.10;;
83190;SDS011;73087;49.924;22.080;2024-03-08T00:01:18;22.80;;;12.10;;
83190;SDS011;73087;49.924;22.080;2024-03-08T00:02:19;26.75;;;11.60;;
83190;SDS011;73087;49.924;22.080;2024-03-08T00:03:19;19.83;;;10.13;;
83190;SDS011;73087;49.924;22.080;2024-03-08T00:04:20;20.58;;;11.00;;
83190;SDS011;73087;49.924;22.080;2024-03-08T00:05:20;20.23;;;11.45;;
83190;SDS011;73087;49.924;22.080;2024-03-08T00:06:21;20.15;;;10.80;;
83190;SDS011;73087;49.924;22.080;2024-03-08T00:07:21;19.63;;;10.70;;
83190;SDS011;73087;49.924;22.080;2024-03-08T00:08:22;18.98;;;10.93;;
83190;SDS011;73087;49.924;22.080;2024-03-08T00:09:22;21.83;;;11.32;;
83190;SDS011;73087;49.924;22.080;2024-03-08T00:10:23;22.30;;;11.07;;
83190;SDS011;73087;49.924;22.080;2024-03-08T00:11:24;19.63;;;11.10;;
83190;SDS011;73087;49.924;22.080;2024-03-08T00:12:24;20.95;;;11.95;;
83190;SDS011;73087;49.924;22.080;2024-03-08T00:13:25;23.10;;;11.40;;
83190;SDS011;73087;49.924;22.080;2024-03-08T00:14:27;22.90;;;11.23;;
83190;SDS011;73087;49.924;22.080;2024-03-08T00:15:27;21.52;;;10.77;;
83190;SDS011;73087;49.924;22.080;2024-03-08T00:16:28;21.55;;;11.32;;
83190;SDS011;73087;49.924;22.080;2024-03-08T00:17:28;20.92;;;10.88;;
83190;SDS011;73087;49.924;22.080;2024-03-08T00:18:29;20.05;;;11.15;;
83190;SDS011;73087;49.924;22.080;2024-03-08T00:19:29;20.85;;;11.63;;
83190;SDS011;73087;49.924;22.080;2024-03-08T00:20:30;24.60;;;12.10;;
83190;SDS011;73087;49.924;22.080;2024-03-08T00:21:30;26.38;;;13.20;;
83190;SDS011;73087;49.924;22.080;2024-03-08T00:22:31;22.70;;;12.23;;
83190;SDS011;73087;49.924;22.080;2024-03-08T00:23:31;22.48;;;12.13;;
83190;SDS011;73087;49.924;22.080;2024-03-08T00:24:31;24.08;;;11.93;;
83190;SDS011;73087;49.924;22.080;2024-03-08T00:25:32;22.80;;;12.55;;
83190;SDS011;73087;49.924;22.080;2024-03-08T00:26:32;23.55;;;11.93;;
83190;SDS011;73087;49.924;22.080;2024-03-08T00:27:33;24.95;;;12.23;;
83190;SDS011;73087;49.924;22.080;2024-03-08T00:28:33;22.85;;;12.18;;
83190;SDS011;73087;49.924;22.080;2024-03-08T00:29:35;25.88;;;12.95;;
83190;SDS011;73087;49.924;22.080;2024-03-08T00:30:36;24.75;;;12.65;;
83190;SDS011;73087;49.924;22.080;2024-03-08T00:31:36;24.13;;;12.90;;
83190;SDS011;73087;49.924;22.080;2024-03-08T00:32:37;24.23;;;12.57;;
83190;SDS011;73087;49.924;22.080;2024-03-08T00:33:37;22.50;;;12.05;;
83190;SDS011;73087;49.924;22.080;2024-03-08T00:34:38;24.20;;;12.93;;
83190;SDS011;73087;49.924;22.080;2024-03-08T00:35:38;23.60;;;12.80;;
83190;SDS011;73087;49.924;22.080;2024-03-08T00:36:39;24.85;;;12.95;;
83190;SDS011;73087;49.924;22.080;2024-03-08T00:37:39;24.55;;;12.80;;
83190;SDS011;73087;49.924;22.080;2024-03-08T00:38:39;25.80;;;12.52;;
83190;SDS011;73087;49.924;22.080;2024-03-08T00:39:40;24.65;;;12.77;;
83190;SDS011;73087;49.924;22.080;2024-03-08T00:40:40;23.05;;;11.60;;
83190;SDS011;73087;49.924;22.080;2024-03-08T00:41:41;22.77;;;12.13;;
83190;SDS011;73087;49.924;22.080;2024-03-08T00:42:41;21.85;;;12.52;;
83190;SDS011;73087;49.924;22.080;2024-03-08T00:43:42;20.85;;;11.60;;
83190;SDS011;73087;49.924;22.080;2024-03-08T00:44:44;22.45;;;11.52;;
83190;SDS011;73087;49.924;22.080;2024-03-08T00:45:44;19.98;;;11.85;;
83190;SDS011;73087;49.924;22.080;2024-03-08T00:46:45;24.50;;;11.90;;
83190;SDS011;73087;49.924;22.080;2024-03-08T00:47:45;19.35;;;11.82;;
83190;SDS011;73087;49.924;22.080;2024-03-08T00:48:45;22.15;;;11.52;;
83190;SDS011;73087;49.924;22.080;2024-03-08T00:49:46;21.45;;;11.38;;
83190;SDS011;73087;49.924;22.080;2024-03-08T00:50:46;22.27;;;11.55;;
83190;SDS011;73087;49.924;22.080;2024-03-08T00:51:47;25.55;;;13.35;;
83190;SDS011;73087;49.924;22.080;2024-03-08T00:52:47;24.63;;;12.60;;
83190;SDS011;73087;49.924;22.080;2024-03-08T00:53:48;22.45;;;12.55;;
83190;SDS011;73087;49.924;22.080;2024-03-08T00:54:48;23.80;;;11.95;;
83190;SDS011;73087;49.924;22.080;2024-03-08T00:55:49;20.10;;;11.55;;
83190;SDS011;73087;49.924;22.080;2024-03-08T00:56:49;24.90;;;12.32;;
83190;SDS011;73087;49.924;22.080;2024-03-08T00:57:50;22.45;;;11.82;;
83190;SDS011;73087;49.924;22.080;2024-03-08T00:58:50;22.98;;;12.15;;
83190;SDS011;73087;49.924;22.080;2024-03-08T00:59:52;21.92;;;12.05;;
83190;SDS011;73087;49.924;22.080;2024-03-08T01:00:52;22.70;;;12.07;;
83190;SDS011;73087;49.924;22.080;2024-03-08T01:01:53;22.20;;;11.68;;
83190;SDS011;73087;49.924;22.080;2024-03-08T01:02:53;22.65;;;12.27;;
83190;SDS011;73087;49.924;22.080;2024-03-08T01:03:54;26.13;;;12.20;;
83190;SDS011;73087;49.924;22.080;2024-03-08T01:04:54;24.58;;;12.80;;
83190;SDS011;73087;49.924;22.080;2024-03-08T01:05:55;20.25;;;11.38;;
83190;SDS011;73087;49.924;22.080;2024-03-08T01:06:55;25.88;;;12.32;;
83190;SDS011;73087;49.924;22.080;2024-03-08T01:07:56;25.83;;;13.05;;
83190;SDS011;73087;49.924;22.080;2024-03-08T01:08:56;25.42;;;12.95;;
83190;SDS011;73087;49.924;22.080;2024-03-08T01:09:57;28.17;;;13.88;;
83190;SDS011;73087;49.924;22.080;2024-03-08T01:10:58;25.67;;;13.15;;
83190;SDS011;73087;49.924;22.080;2024-03-08T01:11:59;27.88;;;13.57;;
83190;SDS011;73087;49.924;22.080;2024-03-08T01:12:59;23.55;;;13.25;;
83190;SDS011;73087;49.924;22.080;2024-03-08T01:14:00;24.63;;;13.70;;
83190;SDS011;73087;49.924;22.080;2024-03-08T01:15:02;27.23;;;12.65;;
83190;SDS011;73087;49.924;22.080;2024-03-08T01:16:02;21.92;;;12.55;;
83190;SDS011;73087;49.924;22.080;2024-03-08T01:17:03;24.95;;;11.85;;
83190;SDS011;73087;49.924;22.080;2024-03-08T01:18:04;21.90;;;11.57;;
83190;SDS011;73087;49.924;22.080;2024-03-08T01:19:05;26.45;;;13.90;;
83190;SDS011;73087;49.924;22.080;2024-03-08T01:20:05;26.73;;;13.70;;
83190;SDS011;73087;49.924;22.080;2024-03-08T01:21:07;29.17;;;14.25;;
83190;SDS011;73087;49.924;22.080;2024-03-08T01:22:07;28.08;;;14.63;;
83190;SDS011;73087;49.924;22.080;2024-03-08T01:23:08;27.65;;;13.55;;
83190;SDS011;73087;49.924;22.080;2024-03-08T01:24:08;28.00;;;13.27;;
83190;SDS011;73087;49.924;22.080;2024-03-08T01:25:09;27.52;;;14.20;;
83190;SDS011;73087;49.924;22.080;2024-03-08T01:26:09;24.73;;;13.55;;
83190;SDS011;73087;49.924;22.080;2024-03-08T01:27:10;28.38;;;13.85;;
83190;SDS011;73087;49.924;22.080;2024-03-08T01:28:10;26.92;;;13.95;;
83190;SDS011;73087;49.924;22.080;2024-03-08T01:29:11;27.20;;;14.52;;
83190;SDS011;73087;49.924;22.080;2024-03-08T01:30:13;27.88;;;14.57;;
83190;SDS011;73087;49.924;22.080;2024-03-08T01:31:13;27.80;;;14.75;;
83190;SDS011;73087;49.924;22.080;2024-03-08T01:32:14;30.52;;;13.85;;
83190;SDS011;73087;49.924;22.080;2024-03-08T01:33:14;32.33;;;15.23;;
83190;SDS011;73087;49.924;22.080;2024-03-08T01:34:15;27.35;;;14.70;;
83190;SDS011;73087;49.924;22.080;2024-03-08T01:35:15;28.17;;;14.65;;
83190;SDS011;73087;49.924;22.080;2024-03-08T01:36:16;28.25;;;14.32;;
83190;SDS011;73087;49.924;22.080;2024-03-08T01:37:16;29.90;;;14.60;;
83190;SDS011;73087;49.924;22.080;2024-03-08T01:38:17;29.15;;;14.40;;
83190;SDS011;73087;49.924;22.080;2024-03-08T01:39:17;28.65;;;14.82;;
83190;SDS011;73087;49.924;22.080;2024-03-08T01:40:17;30.35;;;13.68;;
83190;SDS011;73087;49.924;22.080;2024-03-08T01:41:18;26.42;;;14.73;;
83190;SDS011;73087;49.924;22.080;2024-03-08T01:42:18;30.02;;;14.75;;
83190;SDS011;73087;49.924;22.080;2024-03-08T01:43:19;30.13;;;14.15;;
83190;SDS011;73087;49.924;22.080;2024-03-08T01:44:20;29.50;;;14.15;;
83190;SDS011;73087;49.924;22.080;2024-03-08T01:45:22;27.10;;;13.43;;
83190;SDS011;73087;49.924;22.080;2024-03-08T01:46:22;27.83;;;14.18;;
83190;SDS011;73087;49.924;22.080;2024-03-08T01:47:23;29.85;;;14.57;;
83190;SDS011;73087;49.924;22.080;2024-03-08T01:48:24;28.08;;;13.82;;
83190;SDS011;73087;49.924;22.080;2024-03-08T01:49:25;30.17;;;14.05;;
83190;SDS011;73087;49.924;22.080;2024-03-08T01:50:26;27.50;;;14.10;;
83190;SDS011;73087;49.924;22.080;2024-03-08T01:51:27;25.48;;;13.35;;
83190;SDS011;73087;49.924;22.080;2024-03-08T01:52:28;27.95;;;13.65;;
83190;SDS011;73087;49.924;22.080;2024-03-08T01:53:30;30.45;;;13.63;;
83190;SDS011;73087;49.924;22.080;2024-03-08T01:54:30;28.65;;;15.27;;
83190;SDS011;73087;49.924;22.080;2024-03-08T01:55:31;28.30;;;14.45;;
83190;SDS011;73087;49.924;22.080;2024-03-08T01:56:32;28.52;;;14.48;;
83190;SDS011;73087;49.924;22.080;2024-03-08T01:57:33;26.75;;;15.02;;
83190;SDS011;73087;49.924;22.080;2024-03-08T01:58:34;26.83;;;12.90;;
83190;SDS011;73087;49.924;22.080;2024-03-08T01:59:35;27.23;;;14.10;;
83190;SDS011;73087;49.924;22.080;2024-03-08T02:00:37;27.95;;;14.05;;
83190;SDS011;73087;49.924;22.080;2024-03-08T02:01:40;26.55;;;13.45;;
83190;SDS011;73087;49.924;22.080;2024-03-08T02:02:41;29.48;;;14.20;;
83190;SDS011;73087;49.924;22.080;2024-03-08T02:03:42;27.90;;;14.15;;
83190;SDS011;73087;49.924;22.080;2024-03-08T02:04:44;25.02;;;12.77;;
83190;SDS011;73087;49.924;22.080;2024-03-08T02:05:44;27.05;;;12.70;;
83190;SDS011;73087;49.924;22.080;2024-03-08T02:06:45;26.10;;;13.52;;
83190;SDS011;73087;49.924;22.080;2024-03-08T02:07:45;27.73;;;13.20;;
83190;SDS011;73087;49.924;22.080;2024-03-08T02:08:46;26.92;;;13.40;;
83190;SDS011;73087;49.924;22.080;2024-03-08T02:09:47;27.08;;;13.88;;
83190;SDS011;73087;49.924;22.080;2024-03-08T02:10:47;26.23;;;13.65;;
83190;SDS011;73087;49.924;22.080;2024-03-08T02:11:48;25.23;;;12.85;;
83190;SDS011;73087;49.924;22.080;2024-03-08T02:12:48;27.15;;;12.88;;
83190;SDS011;73087;49.924;22.080;2024-03-08T02:13:49;29.80;;;12.32;;
83190;SDS011;73087;49.924;22.080;2024-03-08T02:14:49;26.80;;;13.05;;
83190;SDS011;73087;49.924;22.080;2024-03-08T02:15:52;23.67;;;13.13;;
83190;SDS011;73087;49.924;22.080;2024-03-08T02:16:53;26.38;;;13.13;;
83190;SDS011;73087;49.924;22.080;2024-03-08T02:17:53;24.92;;;13.38;;
83190;SDS011;73087;49.924;22.080;2024-03-08T02:18:54;25.20;;;13.73;;
83190;SDS011;73087;49.924;22.080;2024-03-08T02:19:54;25.23;;;12.50;;
83190;SDS011;73087;49.924;22.080;2024-03-08T02:20:56;26.48;;;13.88;;
83190;SDS011;73087;49.924;22.080;2024-03-08T02:21:58;27.30;;;13.48;;
83190;SDS011;73087;49.924;22.080;2024-03-08T02:23:00;25.40;;;12.45;;
83190;SDS011;73087;49.924;22.080;2024-03-08T02:24:00;25.85;;;13.40;;
83190;SDS011;73087;49.924;22.080;2024-03-08T02:25:01;24.55;;;12.73;;
83190;SDS011;73087;49.924;22.080;2024-03-08T02:26:03;29.25;;;14.13;;
83190;SDS011;73087;49.924;22.080;2024-03-08T02:27:04;28.42;;;13.90;;
83190;SDS011;73087;49.924;22.080;2024-03-08T02:28:05;28.13;;;13.63;;
83190;SDS011;73087;49.924;22.080;2024-03-08T02:29:05;25.17;;;12.60;;
83190;SDS011;73087;49.924;22.080;2024-03-08T02:30:06;25.52;;;13.07;;
83190;SDS011;73087;49.924;22.080;2024-03-08T02:31:07;26.38;;;12.32;;
83190;SDS011;73087;49.924;22.080;2024-03-08T02:32:08;27.50;;;14.27;;
83190;SDS011;73087;49.924;22.080;2024-03-08T02:33:08;26.95;;;12.90;;
83190;SDS011;73087;49.924;22.080;2024-03-08T02:34:09;26.98;;;12.77;;
83190;SDS011;73087;49.924;22.080;2024-03-08T02:35:09;23.80;;;13.15;;
83190;SDS011;73087;49.924;22.080;2024-03-08T02:36:11;25.63;;;13.55;;
83190;SDS011;73087;49.924;22.080;2024-03-08T02:37:12;24.83;;;13.13;;
83190;SDS011;73087;49.924;22.080;2024-03-08T02:38:12;26.95;;;14.02;;
83190;SDS011;73087;49.924;22.080;2024-03-08T02:39:13;27.27;;;13.77;;
83190;SDS011;73087;49.924;22.080;2024-03-08T02:40:13;25.38;;;11.98;;
83190;SDS011;73087;49.924;22.080;2024-03-08T02:41:14;29.35;;;14.02;;
83190;SDS011;73087;49.924;22.080;2024-03-08T02:42:14;27.27;;;13.20;;
83190;SDS011;73087;49.924;22.080;2024-03-08T02:43:15;27.08;;;13.30;;
83190;SDS011;73087;49.924;22.080;2024-03-08T02:44:17;26.42;;;13.10;;
83190;SDS011;73087;49.924;22.080;2024-03-08T02:45:17;24.15;;;13.27;;
83190;SDS011;73087;49.924;22.080;2024-03-08T02:46:17;28.08;;;13.68;;
83190;SDS011;73087;49.924;22.080;2024-03-08T02:47:18;26.13;;;12.77;;
83190;SDS011;73087;49.924;22.080;2024-03-08T02:48:18;26.35;;;13.30;;
83190;SDS011;73087;49.924;22.080;2024-03-08T02:49:19;26.05;;;13.68;;
83190;SDS011;73087;49.924;22.080;2024-03-08T02:50:19;28.55;;;13.90;;
83190;SDS011;73087;49.924;22.080;2024-03-08T02:51:21;27.25;;;13.05;;
83190;SDS011;73087;49.924;22.080;2024-03-08T02:52:22;27.80;;;12.77;;
83190;SDS011;73087;49.924;22.080;2024-03-08T02:53:22;30.45;;;13.80;;
83190;SDS011;73087;49.924;22.080;2024-03-08T02:54:23;27.02;;;13.40;;
83190;SDS011;73087;49.924;22.080;2024-03-08T02:55:23;30.85;;;13.82;;
83190;SDS011;73087;49.924;22.080;2024-03-08T02:56:24;28.30;;;14.18;;
83190;SDS011;73087;49.924;22.080;2024-03-08T02:57:24;30.17;;;14.02;;
83190;SDS011;73087;49.924;22.080;2024-03-08T02:58:24;26.35;;;13.55;;
83190;SDS011;73087;49.924;22.080;2024-03-08T02:59:25;27.73;;;13.45;;
83190;SDS011;73087;49.924;22.080;2024-03-08T03:00:25;32.13;;;14.82;;
83190;SDS011;73087;49.924;22.080;2024-03-08T03:01:26;32.17;;;13.95;;
83190;SDS011;73087;49.924;22.080;2024-03-08T03:02:26;28.63;;;13.80;;
83190;SDS011;73087;49.924;22.080;2024-03-08T03:03:27;28.35;;;13.27;;
83190;SDS011;73087;49.924;22.080;2024-03-08T03:04:28;30.15;;;13.77;;
83190;SDS011;73087;49.924;22.080;2024-03-08T03:05:29;30.15;;;13.93;;
83190;SDS011;73087;49.924;22.080;2024-03-08T03:06:31;27.70;;;14.07;;
83190;SDS011;73087;49.924;22.080;2024-03-08T03:07:32;30.27;;;14.40;;
83190;SDS011;73087;49.924;22.080;2024-03-08T03:08:34;32.53;;;13.82;;
83190;SDS011;73087;49.924;22.080;2024-03-08T03:09:34;34.92;;;15.30;;
83190;SDS011;73087;49.924;22.080;2024-03-08T03:10:36;27.45;;;13.45;;
83190;SDS011;73087;49.924;22.080;2024-03-08T03:11:37;31.13;;;14.27;;
83190;SDS011;73087;49.924;22.080;2024-03-08T03:12:37;32.95;;;14.95;;
83190;SDS011;73087;49.924;22.080;2024-03-08T03:13:38;34.70;;;13.98;;
83190;SDS011;73087;49.924;22.080;2024-03-08T03:14:38;36.17;;;14.60;;
83190;SDS011;73087;49.924;22.080;2024-03-08T03:15:39;33.92;;;15.10;;
83190;SDS011;73087;49.924;22.080;2024-03-08T03:16:39;33.65;;;15.27;;
83190;SDS011;73087;49.924;22.080;2024-03-08T03:17:40;33.38;;;15.02;;
83190;SDS011;73087;49.924;22.080;2024-03-08T03:18:40;38.25;;;15.18;;
83190;SDS011;73087;49.924;22.080;2024-03-08T03:19:41;31.50;;;14.45;;
83190;SDS011;73087;49.924;22.080;2024-03-08T03:20:41;29.63;;;14.20;;
83190;SDS011;73087;49.924;22.080;2024-03-08T03:21:43;31.58;;;13.38;;
83190;SDS011;73087;49.924;22.080;2024-03-08T03:22:43;29.38;;;14.10;;
83190;SDS011;73087;49.924;22.080;2024-03-08T03:23:44;28.67;;;13.98;;
83190;SDS011;73087;49.924;22.080;2024-03-08T03:24:44;30.08;;;13.55;;
83190;SDS011;73087;49.924;22.080;2024-03-08T03:25:45;30.60;;;13.68;;
83190;SDS011;73087;49.924;22.080;2024-03-08T03:26:45;25.55;;;11.93;;
83190;SDS011;73087;49.924;22.080;2024-03-08T03:27:46;33.15;;;13.85;;
83190;SDS011;73087;49.924;22.080;2024-03-08T03:28:46;26.60;;;13.82;;
83190;SDS011;73087;49.924;22.080;2024-03-08T03:29:47;29.80;;;13.23;;
83190;SDS011;73087;49.924;22.080;2024-03-08T03:30:47;25.83;;;13.15;;
83190;SDS011;73087;49.924;22.080;2024-03-08T03:31:48;26.70;;;13.30;;
83190;SDS011;73087;49.924;22.080;2024-03-08T03:32:48;26.25;;;13.23;;
83190;SDS011;73087;49.924;22.080;2024-03-08T03:33:49;28.67;;;13.30;;
83190;SDS011;73087;49.924;22.080;2024-03-08T03:34:49;25.10;;;12.77;;
83190;SDS011;73087;49.924;22.080;2024-03-08T03:35:50;27.75;;;12.88;;
83190;SDS011;73087;49.924;22.080;2024-03-08T03:36:52;26.80;;;14.02;;
83190;SDS011;73087;49.924;22.080;2024-03-08T03:37:52;29.33;;;13.43;;
83190;SDS011;73087;49.924;22.080;2024-03-08T03:38:53;28.25;;;14.05;;
83190;SDS011;73087;49.924;22.080;2024-03-08T03:39:53;27.40;;;13.10;;
83190;SDS011;73087;49.924;22.080;2024-03-08T03:40:54;25.20;;;13.27;;
83190;SDS011;73087;49.924;22.080;2024-03-08T03:41:54;28.65;;;13.38;;
83190;SDS011;73087;49.924;22.080;2024-03-08T03:42:55;24.67;;;13.43;;
83190;SDS011;73087;49.924;22.080;2024-03-08T03:43:55;28.13;;;13.85;;
83190;SDS011;73087;49.924;22.080;2024-03-08T03:44:56;26.77;;;12.57;;
83190;SDS011;73087;49.924;22.080;2024-03-08T03:45:56;28.95;;;13.50;;
83190;SDS011;73087;49.924;22.080;2024-03-08T03:46:57;26.60;;;12.63;;
83190;SDS011;73087;49.924;22.080;2024-03-08T03:47:57;29.48;;;13.75;;
83190;SDS011;73087;49.924;22.080;2024-03-08T03:48:58;26.48;;;13.48;;
83190;SDS011;73087;49.924;22.080;2024-03-08T03:49:58;27.20;;;13.23;;
83190;SDS011;73087;49.924;22.080;2024-03-08T03:50:59;29.00;;;13.40;;
83190;SDS011;73087;49.924;22.080;2024-03-08T03:52:00;28.15;;;12.93;;
83190;SDS011;73087;49.924;22.080;2024-03-08T03:53:01;26.95;;;12.93;;
83190;SDS011;73087;49.924;22.080;2024-03-08T03:54:03;27.98;;;12.98;;
83190;SDS011;73087;49.924;22.080;2024-03-08T03:55:04;28.83;;;13.50;;
83190;SDS011;73087;49.924;22.080;2024-03-08T03:56:05;23.70;;;12.73;;
83190;SDS011;73087;49.924;22.080;2024-03-08T03:57:05;26.08;;;14.00;;
83190;SDS011;73087;49.924;22.080;2024-03-08T03:58:06;24.92;;;11.45;;
83190;SDS011;73087;49.924;22.080;2024-03-08T03:59:06;29.88;;;12.93;;
83190;SDS011;73087;49.924;22.080;2024-03-08T04:00:08;26.45;;;12.88;;
83190;SDS011;73087;49.924;22.080;2024-03-08T04:01:09;23.02;;;11.48;;
83190;SDS011;73087;49.924;22.080;2024-03-08T04:02:09;28.42;;;12.35;;
83190;SDS011;73087;49.924;22.080;2024-03-08T04:03:10;26.15;;;12.82;;
83190;SDS011;73087;49.924;22.080;2024-03-08T04:04:10;26.77;;;12.43;;
83190;SDS011;73087;49.924;22.080;2024-03-08T04:05:11;25.88;;;12.75;;
83190;SDS011;73087;49.924;22.080;2024-03-08T04:06:11;25.05;;;12.43;;
83190;SDS011;73087;49.924;22.080;2024-03-08T04:07:13;22.70;;;11.98;;
83190;SDS011;73087;49.924;22.080;2024-03-08T04:08:14;25.02;;;12.55;;
83190;SDS011;73087;49.924;22.080;2024-03-08T04:09:14;22.60;;;12.35;;
83190;SDS011;73087;49.924;22.080;2024-03-08T04:10:14;25.17;;;12.55;;
83190;SDS011;73087;49.924;22.080;2024-03-08T04:11:15;22.77;;;11.90;;
83190;SDS011;73087;49.924;22.080;2024-03-08T04:12:15;26.38;;;12.18;;
83190;SDS011;73087;49.924;22.080;2024-03-08T04:13:16;23.95;;;12.80;;
83190;SDS011;73087;49.924;22.080;2024-03-08T04:14:16;27.02;;;13.10;;
83190;SDS011;73087;49.924;22.080;2024-03-08T04:15:17;23.67;;;11.50;;
83190;SDS011;73087;49.924;22.080;2024-03-08T04:16:17;26.92;;;12.13;;
83190;SDS011;73087;49.924;22.080;2024-03-08T04:17:18;27.65;;;13.75;;
83190;SDS011;73087;49.924;22.080;2024-03-08T04:18:18;25.50;;;12.07;;
83190;SDS011;73087;49.924;22.080;2024-03-08T04:19:19;27.85;;;13.38;;
83190;SDS011;73087;49.924;22.080;2024-03-08T04:20:19;33.33;;;13.52;;
83190;SDS011;73087;49.924;22.080;2024-03-08T04:21:20;28.90;;;12.95;;
83190;SDS011;73087;49.924;22.080;2024-03-08T04:22:21;27.27;;;13.27;;
83190;SDS011;73087;49.924;22.080;2024-03-08T04:23:22;23.60;;;12.90;;
83190;SDS011;73087;49.924;22.080;2024-03-08T04:24:23;26.13;;;12.70;;
83190;SDS011;73087;49.924;22.080;2024-03-08T04:25:24;28.00;;;13.85;;
83190;SDS011;73087;49.924;22.080;2024-03-08T04:26:24;26.33;;;12.90;;
83190;SDS011;73087;49.924;22.080;2024-03-08T04:27:25;28.02;;;14.18;;
83190;SDS011;73087;49.924;22.080;2024-03-08T04:28:26;26.35;;;12.77;;
83190;SDS011;73087;49.924;22.080;2024-03-08T04:29:27;28.83;;;14.00;;
83190;SDS011;73087;49.924;22.080;2024-03-08T04:30:27;24.65;;;13.05;;
83190;SDS011;73087;49.924;22.080;2024-03-08T04:31:28;25.52;;;12.45;;
83190;SDS011;73087;49.924;22.080;2024-03-08T04:32:28;26.83;;;13.52;;
83190;SDS011;73087;49.924;22.080;2024-03-08T04:33:29;25.88;;;13.52;;
83190;SDS011;73087;49.924;22.080;2024-03-08T04:34:29;27.95;;;13.73;;
83190;SDS011;73087;49.924;22.080;2024-03-08T04:35:30;25.33;;;13.18;;
83190;SDS011;73087;49.924;22.080;2024-03-08T04:36:30;26.27;;;13.18;;
83190;SDS011;73087;49.924;22.080;2024-03-08T04:37:32;25.13;;;13.73;;
83190;SDS011;73087;49.924;22.080;2024-03-08T04:38:32;28.75;;;13.63;;
83190;SDS011;73087;49.924;22.080;2024-03-08T04:39:33;28.42;;;13.80;;
83190;SDS011;73087;49.924;22.080;2024-03-08T04:40:34;24.75;;;11.75;;
83190;SDS011;73087;49.924;22.080;2024-03-08T04:41:34;23.05;;;12.35;;
83190;SDS011;73087;49.924;22.080;2024-03-08T04:42:35;28.20;;;13.82;;
83190;SDS011;73087;49.924;22.080;2024-03-08T04:43:37;28.95;;;13.65;;
83190;SDS011;73087;49.924;22.080;2024-03-08T04:44:38;25.73;;;13.48;;
83190;SDS011;73087;49.924;22.080;2024-03-08T04:45:38;26.23;;;13.40;;
83190;SDS011;73087;49.924;22.080;2024-03-08T04:46:39;26.00;;;13.30;;
83190;SDS011;73087;49.924;22.080;2024-03-08T04:47:39;25.83;;;12.57;;
83190;SDS011;73087;49.924;22.080;2024-03-08T04:48:40;26.42;;;13.98;;
83190;SDS011;73087;49.924;22.080;2024-03-08T04:49:40;29.55;;;14.43;;
83190;SDS011;73087;49.924;22.080;2024-03-08T04:50:41;28.15;;;12.90;;
83190;SDS011;73087;49.924;22.080;2024-03-08T04:51:41;28.10;;;14.43;;
83190;SDS011;73087;49.924;22.080;2024-03-08T04:52:43;27.40;;;13.70;;
83190;SDS011;73087;49.924;22.080;2024-03-08T04:53:43;29.85;;;13.60;;
83190;SDS011;73087;49.924;22.080;2024-03-08T04:54:44;28.67;;;14.23;;
83190;SDS011;73087;49.924;22.080;2024-03-08T04:55:44;29.50;;;13.68;;
83190;SDS011;73087;49.924;22.080;2024-03-08T04:56:45;26.25;;;13.93;;
83190;SDS011;73087;49.924;22.080;2024-03-08T04:57:45;27.85;;;14.68;;
83190;SDS011;73087;49.924;22.080;2024-03-08T04:58:46;27.90;;;13.93;;
83190;SDS011;73087;49.924;22.080;2024-03-08T04:59:46;27.75;;;13.77;;
83190;SDS011;73087;49.924;22.080;2024-03-08T05:00:47;27.77;;;12.73;;
83190;SDS011;73087;49.924;22.080;2024-03-08T05:01:47;26.52;;;13.85;;
83190;SDS011;73087;49.924;22.080;2024-03-08T05:02:48;26.20;;;13.55;;
83190;SDS011;73087;49.924;22.080;2024-03-08T05:03:48;26.75;;;13.35;;
83190;SDS011;73087;49.924;22.080;2024-03-08T05:04:50;29.33;;;14.55;;
83190;SDS011;73087;49.924;22.080;2024-03-08T05:05:51;28.13;;;13.63;;
83190;SDS011;73087;49.924;22.080;2024-03-08T05:06:51;23.20;;;12.82;;
83190;SDS011;73087;49.924;22.080;2024-03-08T05:07:53;29.45;;;13.57;;
83190;SDS011;73087;49.924;22.080;2024-03-08T05:08:53;29.23;;;14.50;;
83190;SDS011;73087;49.924;22.080;2024-03-08T05:09:54;28.45;;;14.38;;
83190;SDS011;73087;49.924;22.080;2024-03-08T05:10:54;25.42;;;13.15;;
83190;SDS011;73087;49.924;22.080;2024-03-08T05:11:55;27.95;;;13.82;;
83190;SDS011;73087;49.924;22.080;2024-03-08T05:12:56;27.63;;;14.10;;
83190;SDS011;73087;49.924;22.080;2024-03-08T05:13:56;26.98;;;13.80;;
83190;SDS011;73087;49.924;22.080;2024-03-08T05:14:56;27.88;;;14.27;;
83190;SDS011;73087;49.924;22.080;2024-03-08T05:15:57;29.30;;;14.88;;
83190;SDS011;73087;49.924;22.080;2024-03-08T05:16:57;29.50;;;13.73;;
83190;SDS011;73087;49.924;22.080;2024-03-08T05:17:58;30.98;;;14.98;;
83190;SDS011;73087;49.924;22.080;2024-03-08T05:18:58;35.05;;;15.30;;
83190;SDS011;73087;49.924;22.080;2024-03-08T05:19:59;30.55;;;13.73;;
83190;SDS011;73087;49.924;22.080;2024-03-08T05:20:59;31.42;;;14.88;;
83190;SDS011;73087;49.924;22.080;2024-03-08T05:22:00;29.38;;;15.10;;
83190;SDS011;73087;49.924;22.080;2024-03-08T05:23:01;30.45;;;14.27;;
83190;SDS011;73087;49.924;22.080;2024-03-08T05:24:02;28.38;;;13.32;;
83190;SDS011;73087;49.924;22.080;2024-03-08T05:25:03;28.95;;;12.90;;
83190;SDS011;73087;49.924;22.080;2024-03-08T05:26:04;28.50;;;14.10;;
83190;SDS011;73087;49.924;22.080;2024-03-08T05:27:04;26.50;;;13.55;;
83190;SDS011;73087;49.924;22.080;2024-03-08T05:28:05;28.83;;;13.88;;
83190;SDS011;73087;49.924;22.080;2024-03-08T05:29:05;29.45;;;14.13;;
83190;SDS011;73087;49.924;22.080;2024-03-08T05:30:06;29.17;;;14.40;;
83190;SDS011;73087;49.924;22.080;2024-03-08T05:31:07;25.80;;;13.20;;
83190;SDS011;73087;49.924;22.080;2024-03-08T05:32:08;25.27;;;13.02;;
83190;SDS011;73087;49.924;22.080;2024-03-08T05:33:08;31.25;;;14.75;;
83190;SDS011;73087;49.924;22.080;2024-03-08T05:34:08;33.28;;;17.20;;
83190;SDS011;73087;49.924;22.080;2024-03-08T05:35:09;36.67;;;20.55;;
83190;SDS011;73087;49.924;22.080;2024-03-08T05:36:09;37.25;;;21.92;;
83190;SDS011;73087;49.924;22.080;2024-03-08T05:37:10;32.13;;;17.80;;
83190;SDS011;73087;49.924;22.080;2024-03-08T05:38:12;38.53;;;17.90;;
83190;SDS011;73087;49.924;22.080;2024-03-08T05:39:12;27.45;;;14.57;;
83190;SDS011;73087;49.924;22.080;2024-03-08T05:40:13;26.70;;;13.35;;
83190;SDS011;73087;49.924;22.080;2024-03-08T05:41:14;29.92;;;13.95;;
83190;SDS011;73087;49.924;22.080;2024-03-08T05:42:14;27.35;;;13.60;;
83190;SDS011;73087;49.924;22.080;2024-03-08T05:43:15;27.77;;;13.95;;
83190;SDS011;73087;49.924;22.080;2024-03-08T05:44:15;29.20;;;14.20;;
83190;SDS011;73087;49.924;22.080;2024-03-08T05:45:16;24.45;;;12.80;;
83190;SDS011;73087;49.924;22.080;2024-03-08T05:46:17;26.23;;;14.15;;
83190;SDS011;73087;49.924;22.080;2024-03-08T05:47:17;25.42;;;13.13;;
83190;SDS011;73087;49.924;22.080;2024-03-08T05:48:17;29.63;;;13.52;;
83190;SDS011;73087;49.924;22.080;2024-03-08T05:49:18;27.05;;;13.32;;